sensor_id;sensor_type;location;lat;lon;timestamp;P1;durP1;ratioP1;P2;durP2;ratioP2
6376;SDS011;3221;48.858;10.128;2024-02-26T00:02:16;5.93;;;4.37;;
6376;SDS011;3221;48.858;10.128;2024-02-26T00:04:44;5.60;;;4.20;;
6376;SDS011;3221;48.858;10.128;2024-02-26T00:07:11;5.13;;;4.13;;
6376;SDS011;3221;48.858;10.128;2024-02-26T00:09:38;5.60;;;4.00;;
6376;SDS011;3221;48.858;10.128;2024-02-26T00:12:05;5.10;;;4.43;;
6376;SDS011;3221;48.858;10.128;2024-02-26T00:14:32;6.40;;;4.67;;
6376;SDS011;3221;48.858;10.128;2024-02-26T00:16:59;6.17;;;4.57;;
6376;SDS011;3221;48.858;10.128;2024-02-26T00:19:26;6.30;;;4.77;;
6376;SDS011;3221;48.858;10.128;2024-02-26T00:21:54;5.10;;;4.50;;
6376;SDS011;3221;48.858;10.128;2024-02-26T00:24:22;7.37;;;4.97;;
6376;SDS011;3221;48.858;10.128;2024-02-26T00:26:49;4.20;;;3.70;;
6376;SDS011;3221;48.858;10.128;2024-02-26T00:29:20;4.67;;;3.93;;
6376;SDS011;3221;48.858;10.128;2024-02-26T00:31:47;7.37;;;4.37;;
6376;SDS011;3221;48.858;10.128;2024-02-26T00:34:15;5.47;;;4.63;;
6376;SDS011;3221;48.858;10.128;2024-02-26T00:36:42;8.00;;;5.07;;
6376;SDS011;3221;48.858;10.128;2024-02-26T00:39:09;5.80;;;4.50;;
6376;SDS011;3221;48.858;10.128;2024-02-26T00:41:38;6.93;;;4.67;;
6376;SDS011;3221;48.858;10.128;2024-02-26T00:44:08;5.97;;;4.97;;
6376;SDS011;3221;48.858;10.128;2024-02-26T00:46:35;6.10;;;4.90;;
6376;SDS011;3221;48.858;10.128;2024-02-26T00:49:02;5.80;;;4.60;;
6376;SDS011;3221;48.858;10.128;2024-02-26T00:51:30;6.60;;;5.00;;
6376;SDS011;3221;48.858;10.128;2024-02-26T00:53:57;6.03;;;4.60;;
6376;SDS011;3221;48.858;10.128;2024-02-26T00:56:24;8.00;;;4.47;;
6376;SDS011;3221;48.858;10.128;2024-02-26T00:58:51;6.23;;;4.50;;
6376;SDS011;3221;48.858;10.128;2024-02-26T01:01:18;5.03;;;4.47;;
6376;SDS011;3221;48.858;10.128;2024-02-26T01:03:46;6.17;;;4.87;;
6376;SDS011;3221;48.858;10.128;2024-02-26T01:06:13;6.20;;;4.23;;
6376;SDS011;3221;48.858;10.128;2024-02-26T01:08:40;6.00;;;4.10;;
6376;SDS011;3221;48.858;10.128;2024-02-26T01:11:07;5.20;;;4.10;;
6376;SDS011;3221;48.858;10.128;2024-02-26T01:13:34;5.47;;;4.43;;
6376;SDS011;3221;48.858;10.128;2024-02-26T01:16:01;7.83;;;5.20;;
6376;SDS011;3221;48.858;10.128;2024-02-26T01:18:28;7.03;;;4.93;;
6376;SDS011;3221;48.858;10.128;2024-02-26T01:20:56;7.60;;;4.40;;
6376;SDS011;3221;48.858;10.128;2024-02-26T01:23:23;5.67;;;4.30;;
6376;SDS011;3221;48.858;10.128;2024-02-26T01:25:50;5.47;;;4.07;;
6376;SDS011;3221;48.858;10.128;2024-02-26T01:28:17;6.73;;;4.70;;
6376;SDS011;3221;48.858;10.128;2024-02-26T01:30:44;4.73;;;4.00;;
6376;SDS011;3221;48.858;10.128;2024-02-26T01:33:11;4.87;;;3.83;;
6376;SDS011;3221;48.858;10.128;2024-02-26T01:35:39;4.40;;;3.70;;
6376;SDS011;3221;48.858;10.128;2024-02-26T01:38:06;6.23;;;4.20;;
6376;SDS011;3221;48.858;10.128;2024-02-26T01:40:33;5.83;;;3.67;;
6376;SDS011;3221;48.858;10.128;2024-02-26T01:43:01;5.83;;;4.37;;
6376;SDS011;3221;48.858;10.128;2024-02-26T01:45:28;5.53;;;3.90;;
6376;SDS011;3221;48.858;10.128;2024-02-26T01:47:55;4.33;;;3.57;;
6376;SDS011;3221;48.858;10.128;2024-02-26T01:50:23;5.07;;;4.17;;
6376;SDS011;3221;48.858;10.128;2024-02-26T01:52:51;5.73;;;3.73;;
6376;SDS011;3221;48.858;10.128;2024-02-26T01:55:18;4.20;;;3.80;;
6376;SDS011;3221;48.858;10.128;2024-02-26T01:57:47;4.83;;;3.83;;
6376;SDS011;3221;48.858;10.128;2024-02-26T02:00:18;4.63;;;3.93;;
6376;SDS011;3221;48.858;10.128;2024-02-26T02:02:46;4.43;;;3.57;;
6376;SDS011;3221;48.858;10.128;2024-02-26T02:05:15;4.30;;;3.30;;
6376;SDS011;3221;48.858;10.128;2024-02-26T02:07:45;4.37;;;3.70;;
6376;SDS011;3221;48.858;10.128;2024-02-26T02:10:15;4.93;;;3.93;;
6376;SDS011;3221;48.858;10.128;2024-02-26T02:12:43;5.37;;;3.97;;
6376;SDS011;3221;48.858;10.128;2024-02-26T02:15:09;5.57;;;3.50;;
6376;SDS011;3221;48.858;10.128;2024-02-26T02:17:37;4.90;;;4.03;;
6376;SDS011;3221;48.858;10.128;2024-02-26T02:20:06;5.50;;;4.43;;
6376;SDS011;3221;48.858;10.128;2024-02-26T02:22:47;6.50;;;3.83;;
6376;SDS011;3221;48.858;10.128;2024-02-26T02:25:14;4.77;;;3.40;;
6376;SDS011;3221;48.858;10.128;2024-02-26T02:27:41;4.60;;;3.60;;
6376;SDS011;3221;48.858;10.128;2024-02-26T02:30:09;5.90;;;3.93;;
6376;SDS011;3221;48.858;10.128;2024-02-26T02:32:37;5.00;;;4.20;;
6376;SDS011;3221;48.858;10.128;2024-02-26T02:35:08;5.60;;;3.90;;
6376;SDS011;3221;48.858;10.128;2024-02-26T02:37:35;5.30;;;4.33;;
6376;SDS011;3221;48.858;10.128;2024-02-26T02:40:03;4.53;;;3.93;;
6376;SDS011;3221;48.858;10.128;2024-02-26T02:42:31;5.77;;;3.90;;
6376;SDS011;3221;48.858;10.128;2024-02-26T02:44:58;4.57;;;4.00;;
6376;SDS011;3221;48.858;10.128;2024-02-26T02:47:25;4.63;;;3.47;;
6376;SDS011;3221;48.858;10.128;2024-02-26T02:49:52;3.37;;;2.87;;
6376;SDS011;3221;48.858;10.128;2024-02-26T02:52:19;4.23;;;3.60;;
6376;SDS011;3221;48.858;10.128;2024-02-26T02:54:46;4.33;;;3.63;;
6376;SDS011;3221;48.858;10.128;2024-02-26T02:57:13;4.33;;;3.63;;
6376;SDS011;3221;48.858;10.128;2024-02-26T02:59:40;4.80;;;3.80;;
6376;SDS011;3221;48.858;10.128;2024-02-26T03:02:07;4.70;;;3.67;;
6376;SDS011;3221;48.858;10.128;2024-02-26T03:04:34;4.80;;;3.80;;
6376;SDS011;3221;48.858;10.128;2024-02-26T03:07:01;3.97;;;3.57;;
6376;SDS011;3221;48.858;10.128;2024-02-26T03:09:28;4.87;;;3.83;;
6376;SDS011;3221;48.858;10.128;2024-02-26T03:11:56;6.10;;;4.30;;
6376;SDS011;3221;48.858;10.128;2024-02-26T03:14:23;4.87;;;4.00;;
6376;SDS011;3221;48.858;10.128;2024-02-26T03:16:52;5.33;;;4.23;;
6376;SDS011;3221;48.858;10.128;2024-02-26T03:19:20;6.57;;;5.10;;
6376;SDS011;3221;48.858;10.128;2024-02-26T03:21:47;6.17;;;4.80;;
6376;SDS011;3221;48.858;10.128;2024-02-26T03:24:14;7.00;;;5.50;;
6376;SDS011;3221;48.858;10.128;2024-02-26T03:26:41;10.07;;;5.90;;
6376;SDS011;3221;48.858;10.128;2024-02-26T03:29:09;7.43;;;5.50;;
6376;SDS011;3221;48.858;10.128;2024-02-26T03:31:36;6.00;;;4.93;;
6376;SDS011;3221;48.858;10.128;2024-02-26T03:34:03;6.43;;;5.10;;
6376;SDS011;3221;48.858;10.128;2024-02-26T03:36:31;7.17;;;5.40;;
6376;SDS011;3221;48.858;10.128;2024-02-26T03:38:58;7.07;;;4.90;;
6376;SDS011;3221;48.858;10.128;2024-02-26T03:41:25;6.57;;;5.17;;
6376;SDS011;3221;48.858;10.128;2024-02-26T03:43:52;5.50;;;4.80;;
6376;SDS011;3221;48.858;10.128;2024-02-26T03:46:19;5.80;;;4.53;;
6376;SDS011;3221;48.858;10.128;2024-02-26T03:48:46;6.30;;;5.07;;
6376;SDS011;3221;48.858;10.128;2024-02-26T03:51:14;6.90;;;5.47;;
6376;SDS011;3221;48.858;10.128;2024-02-26T03:53:41;6.73;;;5.67;;
6376;SDS011;3221;48.858;10.128;2024-02-26T03:56:08;6.67;;;5.50;;
6376;SDS011;3221;48.858;10.128;2024-02-26T03:58:37;6.03;;;5.30;;
6376;SDS011;3221;48.858;10.128;2024-02-26T04:01:04;5.17;;;4.60;;
6376;SDS011;3221;48.858;10.128;2024-02-26T04:03:33;6.53;;;4.90;;
6376;SDS011;3221;48.858;10.128;2024-02-26T04:06:01;5.70;;;4.50;;
6376;SDS011;3221;48.858;10.128;2024-02-26T04:08:29;5.47;;;4.60;;
6376;SDS011;3221;48.858;10.128;2024-02-26T04:10:56;6.67;;;5.37;;
6376;SDS011;3221;48.858;10.128;2024-02-26T04:13:23;6.00;;;4.87;;
6376;SDS011;3221;48.858;10.128;2024-02-26T04:15:50;5.83;;;4.97;;
6376;SDS011;3221;48.858;10.128;2024-02-26T04:18:17;7.17;;;5.23;;
6376;SDS011;3221;48.858;10.128;2024-02-26T04:20:44;6.27;;;5.10;;
6376;SDS011;3221;48.858;10.128;2024-02-26T04:23:11;5.93;;;4.70;;
6376;SDS011;3221;48.858;10.128;2024-02-26T04:25:41;7.00;;;4.90;;
6376;SDS011;3221;48.858;10.128;2024-02-26T04:28:08;5.17;;;4.10;;
6376;SDS011;3221;48.858;10.128;2024-02-26T04:30:35;6.93;;;5.13;;
6376;SDS011;3221;48.858;10.128;2024-02-26T04:33:03;5.80;;;4.50;;
6376;SDS011;3221;48.858;10.128;2024-02-26T04:35:30;5.83;;;4.90;;
6376;SDS011;3221;48.858;10.128;2024-02-26T04:37:57;3.80;;;3.23;;
6376;SDS011;3221;48.858;10.128;2024-02-26T04:40:24;6.07;;;4.23;;
6376;SDS011;3221;48.858;10.128;2024-02-26T04:42:51;5.43;;;4.27;;
6376;SDS011;3221;48.858;10.128;2024-02-26T04:45:18;4.60;;;3.80;;
6376;SDS011;3221;48.858;10.128;2024-02-26T04:47:45;5.40;;;4.13;;
6376;SDS011;3221;48.858;10.128;2024-02-26T04:50:12;5.07;;;4.30;;
6376;SDS011;3221;48.858;10.128;2024-02-26T04:52:39;6.23;;;4.87;;
6376;SDS011;3221;48.858;10.128;2024-02-26T04:55:06;5.40;;;4.40;;
6376;SDS011;3221;48.858;10.128;2024-02-26T04:57:33;4.10;;;3.40;;
6376;SDS011;3221;48.858;10.128;2024-02-26T05:00:00;5.10;;;3.80;;
6376;SDS011;3221;48.858;10.128;2024-02-26T05:02:27;5.27;;;3.53;;
6376;SDS011;3221;48.858;10.128;2024-02-26T05:04:56;3.73;;;3.20;;
6376;SDS011;3221;48.858;10.128;2024-02-26T05:07:23;4.93;;;4.17;;
6376;SDS011;3221;48.858;10.128;2024-02-26T05:09:50;5.40;;;4.10;;
6376;SDS011;3221;48.858;10.128;2024-02-26T05:12:18;5.60;;;4.30;;
6376;SDS011;3221;48.858;10.128;2024-02-26T05:14:45;5.70;;;4.30;;
6376;SDS011;3221;48.858;10.128;2024-02-26T05:17:12;6.27;;;4.40;;
6376;SDS011;3221;48.858;10.128;2024-02-26T05:19:39;4.93;;;4.23;;
6376;SDS011;3221;48.858;10.128;2024-02-26T05:22:06;6.47;;;4.63;;
6376;SDS011;3221;48.858;10.128;2024-02-26T05:24:33;6.70;;;4.50;;
6376;SDS011;3221;48.858;10.128;2024-02-26T05:27:00;5.53;;;4.30;;
6376;SDS011;3221;48.858;10.128;2024-02-26T05:29:27;5.17;;;4.20;;
6376;SDS011;3221;48.858;10.128;2024-02-26T05:31:54;13.43;;;4.50;;
6376;SDS011;3221;48.858;10.128;2024-02-26T05:34:21;6.37;;;4.40;;
6376;SDS011;3221;48.858;10.128;2024-02-26T05:36:48;5.73;;;4.67;;
6376;SDS011;3221;48.858;10.128;2024-02-26T05:39:15;5.93;;;4.50;;
6376;SDS011;3221;48.858;10.128;2024-02-26T05:41:46;5.37;;;4.67;;
6376;SDS011;3221;48.858;10.128;2024-02-26T05:44:13;6.03;;;4.10;;
6376;SDS011;3221;48.858;10.128;2024-02-26T05:46:41;5.43;;;4.50;;
6376;SDS011;3221;48.858;10.128;2024-02-26T05:49:08;6.33;;;5.13;;
6376;SDS011;3221;48.858;10.128;2024-02-26T05:51:35;7.73;;;6.40;;
6376;SDS011;3221;48.858;10.128;2024-02-26T05:54:02;7.90;;;6.20;;
6376;SDS011;3221;48.858;10.128;2024-02-26T05:56:30;8.77;;;6.27;;
6376;SDS011;3221;48.858;10.128;2024-02-26T05:58:57;8.13;;;6.00;;
6376;SDS011;3221;48.858;10.128;2024-02-26T06:01:24;7.33;;;5.80;;
6376;SDS011;3221;48.858;10.128;2024-02-26T06:03:52;7.53;;;5.73;;
6376;SDS011;3221;48.858;10.128;2024-02-26T06:06:19;6.40;;;5.10;;
6376;SDS011;3221;48.858;10.128;2024-02-26T06:08:47;7.17;;;5.73;;
6376;SDS011;3221;48.858;10.128;2024-02-26T06:11:14;6.43;;;5.00;;
6376;SDS011;3221;48.858;10.128;2024-02-26T06:13:41;6.33;;;4.43;;
6376;SDS011;3221;48.858;10.128;2024-02-26T06:16:08;4.30;;;3.60;;
6376;SDS011;3221;48.858;10.128;2024-02-26T06:18:35;5.53;;;3.90;;
6376;SDS011;3221;48.858;10.128;2024-02-26T06:21:02;4.30;;;3.60;;
6376;SDS011;3221;48.858;10.128;2024-02-26T06:23:29;8.87;;;6.57;;
6376;SDS011;3221;48.858;10.128;2024-02-26T06:25:56;8.83;;;6.37;;
6376;SDS011;3221;48.858;10.128;2024-02-26T06:28:23;7.13;;;5.63;;
6376;SDS011;3221;48.858;10.128;2024-02-26T06:30:50;8.87;;;6.67;;
6376;SDS011;3221;48.858;10.128;2024-02-26T06:33:18;8.50;;;6.50;;
6376;SDS011;3221;48.858;10.128;2024-02-26T06:35:46;7.90;;;6.07;;
6376;SDS011;3221;48.858;10.128;2024-02-26T06:38:12;5.50;;;4.20;;
6376;SDS011;3221;48.858;10.128;2024-02-26T06:40:40;6.40;;;5.30;;
6376;SDS011;3221;48.858;10.128;2024-02-26T06:43:07;6.43;;;5.10;;
6376;SDS011;3221;48.858;10.128;2024-02-26T06:45:33;7.23;;;5.50;;
6376;SDS011;3221;48.858;10.128;2024-02-26T06:48:00;6.80;;;5.33;;
6376;SDS011;3221;48.858;10.128;2024-02-26T06:50:29;8.20;;;5.73;;
6376;SDS011;3221;48.858;10.128;2024-02-26T06:52:56;7.53;;;6.33;;
6376;SDS011;3221;48.858;10.128;2024-02-26T06:55:23;9.10;;;6.60;;
6376;SDS011;3221;48.858;10.128;2024-02-26T06:57:49;6.83;;;5.40;;
6376;SDS011;3221;48.858;10.128;2024-02-26T07:00:16;5.60;;;4.00;;
6376;SDS011;3221;48.858;10.128;2024-02-26T07:02:44;7.70;;;5.30;;
6376;SDS011;3221;48.858;10.128;2024-02-26T07:05:11;6.53;;;4.93;;
6376;SDS011;3221;48.858;10.128;2024-02-26T07:07:39;5.73;;;4.63;;
6376;SDS011;3221;48.858;10.128;2024-02-26T07:10:06;6.93;;;4.93;;
6376;SDS011;3221;48.858;10.128;2024-02-26T07:12:33;7.73;;;5.30;;
6376;SDS011;3221;48.858;10.128;2024-02-26T07:15:01;5.77;;;4.67;;
6376;SDS011;3221;48.858;10.128;2024-02-26T07:17:29;4.67;;;4.10;;
6376;SDS011;3221;48.858;10.128;2024-02-26T07:19:56;4.17;;;3.57;;
6376;SDS011;3221;48.858;10.128;2024-02-26T07:22:23;4.43;;;3.73;;
6376;SDS011;3221;48.858;10.128;2024-02-26T07:24:50;3.60;;;2.70;;
6376;SDS011;3221;48.858;10.128;2024-02-26T07:27:18;4.90;;;3.03;;
6376;SDS011;3221;48.858;10.128;2024-02-26T07:29:45;3.87;;;3.00;;
6376;SDS011;3221;48.858;10.128;2024-02-26T07:32:13;3.20;;;2.60;;
6376;SDS011;3221;48.858;10.128;2024-02-26T07:34:40;3.33;;;2.87;;
6376;SDS011;3221;48.858;10.128;2024-02-26T07:37:11;3.97;;;3.03;;
6376;SDS011;3221;48.858;10.128;2024-02-26T07:39:38;3.80;;;3.40;;
6376;SDS011;3221;48.858;10.128;2024-02-26T07:42:05;4.47;;;3.80;;
6376;SDS011;3221;48.858;10.128;2024-02-26T07:44:33;4.30;;;3.63;;
6376;SDS011;3221;48.858;10.128;2024-02-26T07:47:00;6.43;;;4.93;;
6376;SDS011;3221;48.858;10.128;2024-02-26T07:49:27;6.30;;;5.23;;
6376;SDS011;3221;48.858;10.128;2024-02-26T07:51:54;7.20;;;5.00;;
6376;SDS011;3221;48.858;10.128;2024-02-26T07:54:24;7.37;;;5.17;;
6376;SDS011;3221;48.858;10.128;2024-02-26T07:56:51;5.37;;;4.53;;
6376;SDS011;3221;48.858;10.128;2024-02-26T07:59:19;5.87;;;4.40;;
6376;SDS011;3221;48.858;10.128;2024-02-26T08:01:49;6.40;;;4.83;;
6376;SDS011;3221;48.858;10.128;2024-02-26T08:04:24;5.50;;;4.27;;
6376;SDS011;3221;48.858;10.128;2024-02-26T08:06:53;5.90;;;4.70;;
6376;SDS011;3221;48.858;10.128;2024-02-26T08:09:20;4.83;;;4.20;;
6376;SDS011;3221;48.858;10.128;2024-02-26T08:11:47;5.03;;;4.37;;
6376;SDS011;3221;48.858;10.128;2024-02-26T08:14:14;6.37;;;4.83;;
6376;SDS011;3221;48.858;10.128;2024-02-26T08:16:41;7.60;;;5.63;;
6376;SDS011;3221;48.858;10.128;2024-02-26T08:19:08;7.97;;;6.00;;
6376;SDS011;3221;48.858;10.128;2024-02-26T08:21:36;8.30;;;6.50;;
6376;SDS011;3221;48.858;10.128;2024-02-26T08:24:04;7.87;;;6.13;;
6376;SDS011;3221;48.858;10.128;2024-02-26T08:26:31;8.03;;;5.83;;
6376;SDS011;3221;48.858;10.128;2024-02-26T08:28:58;6.87;;;5.63;;
6376;SDS011;3221;48.858;10.128;2024-02-26T08:31:25;8.00;;;5.90;;
6376;SDS011;3221;48.858;10.128;2024-02-26T08:33:53;7.63;;;5.90;;
6376;SDS011;3221;48.858;10.128;2024-02-26T08:36:20;7.60;;;5.83;;
6376;SDS011;3221;48.858;10.128;2024-02-26T08:38:47;7.27;;;5.63;;
6376;SDS011;3221;48.858;10.128;2024-02-26T08:41:14;7.93;;;6.30;;
6376;SDS011;3221;48.858;10.128;2024-02-26T08:43:41;7.63;;;5.93;;
6376;SDS011;3221;48.858;10.128;2024-02-26T08:46:09;8.33;;;6.30;;
6376;SDS011;3221;48.858;10.128;2024-02-26T08:48:36;9.13;;;6.60;;
6376;SDS011;3221;48.858;10.128;2024-02-26T08:51:06;8.50;;;6.67;;
6376;SDS011;3221;48.858;10.128;2024-02-26T08:53:33;8.93;;;6.53;;
6376;SDS011;3221;48.858;10.128;2024-02-26T08:56:08;8.33;;;6.60;;
6376;SDS011;3221;48.858;10.128;2024-02-26T08:58:37;8.43;;;6.83;;
6376;SDS011;3221;48.858;10.128;2024-02-26T09:01:04;7.33;;;5.67;;
6376;SDS011;3221;48.858;10.128;2024-02-26T09:03:31;8.53;;;6.63;;
6376;SDS011;3221;48.858;10.128;2024-02-26T09:05:58;8.63;;;6.87;;
6376;SDS011;3221;48.858;10.128;2024-02-26T09:08:25;7.17;;;6.30;;
6376;SDS011;3221;48.858;10.128;2024-02-26T09:10:52;9.07;;;6.80;;
6376;SDS011;3221;48.858;10.128;2024-02-26T09:13:19;10.00;;;7.57;;
6376;SDS011;3221;48.858;10.128;2024-02-26T09:15:46;9.27;;;6.80;;
6376;SDS011;3221;48.858;10.128;2024-02-26T09:18:13;10.70;;;8.20;;
6376;SDS011;3221;48.858;10.128;2024-02-26T09:20:41;10.17;;;8.17;;
6376;SDS011;3221;48.858;10.128;2024-02-26T09:23:09;11.73;;;8.60;;
6376;SDS011;3221;48.858;10.128;2024-02-26T09:25:36;11.20;;;8.17;;
6376;SDS011;3221;48.858;10.128;2024-02-26T09:28:03;11.97;;;8.60;;
6376;SDS011;3221;48.858;10.128;2024-02-26T09:30:30;12.70;;;8.73;;
6376;SDS011;3221;48.858;10.128;2024-02-26T09:32:57;10.30;;;8.23;;
6376;SDS011;3221;48.858;10.128;2024-02-26T09:35:24;11.37;;;8.73;;
6376;SDS011;3221;48.858;10.128;2024-02-26T09:37:53;11.30;;;8.20;;
6376;SDS011;3221;48.858;10.128;2024-02-26T09:40:20;9.43;;;7.80;;
6376;SDS011;3221;48.858;10.128;2024-02-26T09:42:48;11.80;;;8.03;;
6376;SDS011;3221;48.858;10.128;2024-02-26T09:45:19;11.10;;;7.87;;
6376;SDS011;3221;48.858;10.128;2024-02-26T09:47:49;9.53;;;8.00;;
6376;SDS011;3221;48.858;10.128;2024-02-26T09:50:17;10.37;;;7.87;;
6376;SDS011;3221;48.858;10.128;2024-02-26T09:52:49;10.40;;;8.13;;
6376;SDS011;3221;48.858;10.128;2024-02-26T09:55:17;8.97;;;7.20;;
6376;SDS011;3221;48.858;10.128;2024-02-26T09:57:45;9.07;;;7.23;;
6376;SDS011;3221;48.858;10.128;2024-02-26T10:00:17;9.87;;;7.37;;
6376;SDS011;3221;48.858;10.128;2024-02-26T10:02:47;8.40;;;6.90;;
6376;SDS011;3221;48.858;10.128;2024-02-26T10:05:16;10.80;;;7.67;;
6376;SDS011;3221;48.858;10.128;2024-02-26T10:07:46;8.87;;;7.57;;
6376;SDS011;3221;48.858;10.128;2024-02-26T10:10:14;13.60;;;7.73;;
6376;SDS011;3221;48.858;10.128;2024-02-26T10:12:43;11.10;;;7.90;;
6376;SDS011;3221;48.858;10.128;2024-02-26T10:15:10;8.90;;;7.47;;
6376;SDS011;3221;48.858;10.128;2024-02-26T10:17:37;9.20;;;7.30;;
6376;SDS011;3221;48.858;10.128;2024-02-26T10:20:11;9.97;;;7.33;;
6376;SDS011;3221;48.858;10.128;2024-02-26T10:22:43;10.53;;;7.57;;
6376;SDS011;3221;48.858;10.128;2024-02-26T10:25:11;11.17;;;7.80;;
6376;SDS011;3221;48.858;10.128;2024-02-26T10:27:39;9.30;;;6.90;;
6376;SDS011;3221;48.858;10.128;2024-02-26T10:30:21;9.50;;;7.27;;
6376;SDS011;3221;48.858;10.128;2024-02-26T10:32:49;8.93;;;7.10;;
6376;SDS011;3221;48.858;10.128;2024-02-26T10:35:17;8.50;;;6.30;;
6376;SDS011;3221;48.858;10.128;2024-02-26T10:37:47;8.93;;;6.93;;
6376;SDS011;3221;48.858;10.128;2024-02-26T10:40:15;9.07;;;6.90;;
6376;SDS011;3221;48.858;10.128;2024-02-26T10:42:43;8.60;;;6.83;;
6376;SDS011;3221;48.858;10.128;2024-02-26T10:45:11;9.63;;;6.70;;
6376;SDS011;3221;48.858;10.128;2024-02-26T10:47:40;10.00;;;7.43;;
6376;SDS011;3221;48.858;10.128;2024-02-26T10:50:08;9.27;;;7.27;;
6376;SDS011;3221;48.858;10.128;2024-02-26T10:52:36;9.53;;;7.30;;
6376;SDS011;3221;48.858;10.128;2024-02-26T10:55:04;9.43;;;7.47;;
6376;SDS011;3221;48.858;10.128;2024-02-26T10:57:36;9.00;;;7.40;;
6376;SDS011;3221;48.858;10.128;2024-02-26T11:00:06;8.07;;;7.13;;
6376;SDS011;3221;48.858;10.128;2024-02-26T11:02:36;9.43;;;7.07;;
6376;SDS011;3221;48.858;10.128;2024-02-26T11:05:05;9.73;;;7.27;;
6376;SDS011;3221;48.858;10.128;2024-02-26T11:07:36;10.97;;;8.73;;
6376;SDS011;3221;48.858;10.128;2024-02-26T11:10:06;12.53;;;10.47;;
6376;SDS011;3221;48.858;10.128;2024-02-26T11:12:34;12.03;;;9.20;;
6376;SDS011;3221;48.858;10.128;2024-02-26T11:15:04;10.13;;;8.23;;
6376;SDS011;3221;48.858;10.128;2024-02-26T11:17:32;13.17;;;7.93;;
6376;SDS011;3221;48.858;10.128;2024-02-26T11:20:00;7.47;;;6.30;;
6376;SDS011;3221;48.858;10.128;2024-02-26T11:22:29;8.30;;;6.53;;
6376;SDS011;3221;48.858;10.128;2024-02-26T11:24:56;7.03;;;5.40;;
6376;SDS011;3221;48.858;10.128;2024-02-26T11:27:25;4.97;;;4.10;;
6376;SDS011;3221;48.858;10.128;2024-02-26T11:29:57;4.80;;;4.13;;
6376;SDS011;3221;48.858;10.128;2024-02-26T11:32:27;3.77;;;3.37;;
6376;SDS011;3221;48.858;10.128;2024-02-26T11:34:57;3.43;;;3.03;;
6376;SDS011;3221;48.858;10.128;2024-02-26T11:37:25;5.43;;;3.30;;
6376;SDS011;3221;48.858;10.128;2024-02-26T11:39:52;3.47;;;2.80;;
6376;SDS011;3221;48.858;10.128;2024-02-26T11:42:22;3.70;;;3.00;;
6376;SDS011;3221;48.858;10.128;2024-02-26T11:44:51;3.90;;;2.87;;
6376;SDS011;3221;48.858;10.128;2024-02-26T11:47:19;9.63;;;4.70;;
6376;SDS011;3221;48.858;10.128;2024-02-26T11:49:49;8.37;;;5.30;;
6376;SDS011;3221;48.858;10.128;2024-02-26T11:52:17;7.97;;;4.60;;
6376;SDS011;3221;48.858;10.128;2024-02-26T11:54:48;5.77;;;4.70;;
6376;SDS011;3221;48.858;10.128;2024-02-26T12:05:12;8.03;;;6.50;;
6376;SDS011;3221;48.858;10.128;2024-02-26T12:07:44;8.07;;;6.57;;
6376;SDS011;3221;48.858;10.128;2024-02-26T12:10:26;8.97;;;6.17;;
6376;SDS011;3221;48.858;10.128;2024-02-26T12:13:10;8.23;;;6.40;;
6376;SDS011;3221;48.858;10.128;2024-02-26T12:15:54;6.60;;;5.90;;
6376;SDS011;3221;48.858;10.128;2024-02-26T12:18:23;6.17;;;5.17;;
6376;SDS011;3221;48.858;10.128;2024-02-26T12:21:00;6.27;;;5.13;;
6376;SDS011;3221;48.858;10.128;2024-02-26T12:23:29;7.60;;;5.67;;
6376;SDS011;3221;48.858;10.128;2024-02-26T12:25:59;7.93;;;4.83;;
6376;SDS011;3221;48.858;10.128;2024-02-26T12:28:31;5.80;;;4.53;;
6376;SDS011;3221;48.858;10.128;2024-02-26T12:30:58;4.97;;;3.23;;
6376;SDS011;3221;48.858;10.128;2024-02-26T12:33:26;4.07;;;3.10;;
6376;SDS011;3221;48.858;10.128;2024-02-26T12:35:55;3.37;;;2.67;;
6376;SDS011;3221;48.858;10.128;2024-02-26T12:38:23;2.87;;;2.30;;
6376;SDS011;3221;48.858;10.128;2024-02-26T12:40:50;3.63;;;2.50;;
6376;SDS011;3221;48.858;10.128;2024-02-26T12:43:17;4.20;;;2.87;;
6376;SDS011;3221;48.858;10.128;2024-02-26T12:45:45;3.93;;;3.00;;
6376;SDS011;3221;48.858;10.128;2024-02-26T12:48:14;3.73;;;3.30;;
6376;SDS011;3221;48.858;10.128;2024-02-26T12:50:44;6.13;;;3.50;;
6376;SDS011;3221;48.858;10.128;2024-02-26T12:53:14;4.07;;;3.30;;
6376;SDS011;3221;48.858;10.128;2024-02-26T12:55:42;3.83;;;3.47;;
6376;SDS011;3221;48.858;10.128;2024-02-26T12:58:09;4.47;;;3.70;;
6376;SDS011;3221;48.858;10.128;2024-02-26T13:00:37;4.50;;;3.77;;
6376;SDS011;3221;48.858;10.128;2024-02-26T13:03:05;4.27;;;3.47;;
6376;SDS011;3221;48.858;10.128;2024-02-26T13:05:32;6.30;;;3.27;;
6376;SDS011;3221;48.858;10.128;2024-02-26T13:08:00;3.20;;;2.87;;
6376;SDS011;3221;48.858;10.128;2024-02-26T13:10:29;4.10;;;2.50;;
6376;SDS011;3221;48.858;10.128;2024-02-26T13:13:01;2.57;;;2.30;;
6376;SDS011;3221;48.858;10.128;2024-02-26T13:15:29;2.40;;;2.20;;
6376;SDS011;3221;48.858;10.128;2024-02-26T13:17:56;2.30;;;2.10;;
6376;SDS011;3221;48.858;10.128;2024-02-26T13:20:25;2.00;;;1.90;;
6376;SDS011;3221;48.858;10.128;2024-02-26T13:23:04;2.40;;;1.90;;
6376;SDS011;3221;48.858;10.128;2024-02-26T13:25:36;2.67;;;1.97;;
6376;SDS011;3221;48.858;10.128;2024-02-26T13:28:16;2.27;;;1.97;;
6376;SDS011;3221;48.858;10.128;2024-02-26T13:30:51;2.73;;;2.23;;
6376;SDS011;3221;48.858;10.128;2024-02-26T13:33:20;3.03;;;2.00;;
6376;SDS011;3221;48.858;10.128;2024-02-26T13:35:48;2.70;;;2.10;;
6376;SDS011;3221;48.858;10.128;2024-02-26T13:38:15;2.50;;;2.20;;
6376;SDS011;3221;48.858;10.128;2024-02-26T13:40:42;2.57;;;2.20;;
6376;SDS011;3221;48.858;10.128;2024-02-26T13:43:09;3.33;;;2.57;;
6376;SDS011;3221;48.858;10.128;2024-02-26T13:45:37;3.43;;;2.20;;
6376;SDS011;3221;48.858;10.128;2024-02-26T13:48:06;3.93;;;2.20;;
6376;SDS011;3221;48.858;10.128;2024-02-26T13:50:34;3.47;;;2.10;;
6376;SDS011;3221;48.858;10.128;2024-02-26T13:53:01;2.50;;;2.30;;
6376;SDS011;3221;48.858;10.128;2024-02-26T13:55:29;2.63;;;2.43;;
6376;SDS011;3221;48.858;10.128;2024-02-26T13:57:58;3.43;;;2.20;;
6376;SDS011;3221;48.858;10.128;2024-02-26T14:00:27;2.13;;;1.93;;
6376;SDS011;3221;48.858;10.128;2024-02-26T14:02:58;4.00;;;2.70;;
6376;SDS011;3221;48.858;10.128;2024-02-26T14:05:26;2.60;;;2.30;;
6376;SDS011;3221;48.858;10.128;2024-02-26T14:07:53;3.57;;;2.47;;
6376;SDS011;3221;48.858;10.128;2024-02-26T14:10:21;4.33;;;2.73;;
6376;SDS011;3221;48.858;10.128;2024-02-26T14:12:48;3.40;;;2.90;;
6376;SDS011;3221;48.858;10.128;2024-02-26T14:15:15;4.77;;;3.03;;
6376;SDS011;3221;48.858;10.128;2024-02-26T14:17:42;3.37;;;3.00;;
6376;SDS011;3221;48.858;10.128;2024-02-26T14:20:10;4.13;;;3.17;;
6376;SDS011;3221;48.858;10.128;2024-02-26T14:22:37;4.43;;;3.37;;
6376;SDS011;3221;48.858;10.128;2024-02-26T14:25:04;25.27;;;4.23;;
6376;SDS011;3221;48.858;10.128;2024-02-26T14:27:31;5.13;;;3.30;;
6376;SDS011;3221;48.858;10.128;2024-02-26T14:29:58;3.73;;;2.90;;
6376;SDS011;3221;48.858;10.128;2024-02-26T14:32:25;5.10;;;3.20;;
6376;SDS011;3221;48.858;10.128;2024-02-26T14:34:52;3.03;;;2.57;;
6376;SDS011;3221;48.858;10.128;2024-02-26T14:37:19;3.30;;;2.77;;
6376;SDS011;3221;48.858;10.128;2024-02-26T14:39:46;3.73;;;2.80;;
6376;SDS011;3221;48.858;10.128;2024-02-26T14:42:14;4.90;;;3.00;;
6376;SDS011;3221;48.858;10.128;2024-02-26T14:44:44;2.90;;;2.70;;
6376;SDS011;3221;48.858;10.128;2024-02-26T14:47:14;3.97;;;2.97;;
6376;SDS011;3221;48.858;10.128;2024-02-26T14:49:41;3.10;;;2.60;;
6376;SDS011;3221;48.858;10.128;2024-02-26T14:52:08;4.17;;;2.93;;
6376;SDS011;3221;48.858;10.128;2024-02-26T14:54:35;5.93;;;3.03;;
6376;SDS011;3221;48.858;10.128;2024-02-26T14:57:05;11.47;;;3.00;;
6376;SDS011;3221;48.858;10.128;2024-02-26T14:59:35;3.23;;;2.60;;
6376;SDS011;3221;48.858;10.128;2024-02-26T15:02:03;4.00;;;2.73;;
6376;SDS011;3221;48.858;10.128;2024-02-26T15:04:30;3.67;;;2.60;;
6376;SDS011;3221;48.858;10.128;2024-02-26T15:06:57;4.27;;;3.00;;
6376;SDS011;3221;48.858;10.128;2024-02-26T15:09:24;5.73;;;2.73;;
6376;SDS011;3221;48.858;10.128;2024-02-26T15:11:51;3.47;;;2.80;;
6376;SDS011;3221;48.858;10.128;2024-02-26T15:14:18;3.83;;;3.10;;